createdAt,value
2022-08-23T00:00:49.691Z,23.02
2022-08-23T00:03:22.782Z,23.02
2022-08-23T00:05:54.825Z,23.03
2022-08-23T00:08:26.811Z,23.01
2022-08-23T00:10:58.978Z,22.99
2022-08-23T00:13:48.139Z,22.96
2022-08-23T00:16:20.631Z,22.94
2022-08-23T00:18:52.629Z,22.94
2022-08-23T00:21:24.944Z,22.92
2022-08-23T00:23:57.822Z,22.92
2022-08-23T00:26:51.156Z,22.92
2022-08-23T00:29:26.750Z,22.90
2022-08-23T00:31:59.884Z,22.86
2022-08-23T00:34:32.020Z,22.85
2022-08-23T00:37:04.985Z,22.85
2022-08-23T00:39:38.201Z,22.86
2022-08-23T00:42:56.550Z,22.85
2022-08-23T00:46:02.378Z,22.86
2022-08-23T00:48:34.994Z,22.84
2022-08-23T00:51:18.522Z,22.81
2022-08-23T00:53:55.537Z,22.76
2022-08-23T00:56:30.305Z,22.77
2022-08-23T00:59:03.600Z,22.73
2022-08-23T01:01:36.077Z,22.72
2022-08-23T01:04:08.978Z,22.71
2022-08-23T01:06:50.589Z,22.71
2022-08-23T01:09:22.704Z,22.69
2022-08-23T01:12:04.701Z,22.71
2022-08-23T01:14:47.591Z,22.71
2022-08-23T01:17:23.838Z,22.69
2022-08-23T01:19:58.972Z,22.68
2022-08-23T01:22:42.726Z,22.66
2022-08-23T01:25:17.667Z,22.63
2022-08-23T01:27:50.214Z,22.60
2022-08-23T01:30:25.334Z,22.56
2022-08-23T01:33:00.011Z,22.51
2022-08-23T01:35:55.122Z,22.49
2022-08-23T01:38:28.336Z,22.50
2022-08-23T01:41:06.989Z,22.47
2022-08-23T01:43:39.538Z,22.45
2022-08-23T01:46:20.362Z,22.45
2022-08-23T01:48:55.363Z,22.45
2022-08-23T01:51:28.460Z,22.46
2022-08-23T01:54:00.616Z,22.46
2022-08-23T01:56:38.893Z,22.45
2022-08-23T01:59:13.614Z,22.45
2022-08-23T02:01:53.673Z,22.45
2022-08-23T02:04:27.742Z,22.42
2022-08-23T02:06:59.885Z,22.40
2022-08-23T02:09:32.049Z,22.39
2022-08-23T02:12:06.213Z,22.36
2022-08-23T02:14:42.086Z,22.36
2022-08-23T02:17:22.449Z,22.33
2022-08-23T02:19:55.424Z,22.31
2022-08-23T02:22:27.404Z,22.30
2022-08-23T02:24:59.935Z,22.32
2022-08-23T02:27:32.030Z,22.29
2022-08-23T02:30:04.977Z,22.28
2022-08-23T02:32:37.624Z,22.26
2022-08-23T02:35:24.584Z,22.25
2022-08-23T02:37:56.931Z,22.26
2022-08-23T02:40:29.157Z,22.26
2022-08-23T02:43:01.489Z,22.27
2022-08-23T02:45:35.170Z,22.26
2022-08-23T02:48:08.558Z,22.23
2022-08-23T02:50:49.945Z,22.21
2022-08-23T02:53:23.633Z,22.16
2022-08-23T02:55:55.993Z,22.13
2022-08-23T02:58:28.457Z,22.12
2022-08-23T03:01:01.263Z,22.09
2022-08-23T03:03:33.845Z,22.07
2022-08-23T03:06:24.545Z,22.04
2022-08-23T03:08:58.587Z,22.02
2022-08-23T03:11:30.710Z,21.99
2022-08-23T03:14:02.945Z,21.97
2022-08-23T03:16:35.426Z,21.95
2022-08-23T03:19:09.337Z,21.94
2022-08-23T03:21:43.429Z,21.92
2022-08-23T03:24:17.511Z,21.88
2022-08-23T03:26:49.686Z,21.86
2022-08-23T03:29:22.658Z,21.86
2022-08-23T03:32:04.970Z,21.85
2022-08-23T03:34:40.948Z,21.82
2022-08-23T03:37:14.623Z,21.80
2022-08-23T03:39:47.607Z,21.80
2022-08-23T03:42:20.392Z,21.79
2022-08-23T03:45:03.012Z,21.81
2022-08-23T03:47:35.946Z,21.78
2022-08-23T03:50:08.422Z,21.78
2022-08-23T03:52:42.091Z,21.77
2022-08-23T03:55:15.609Z,21.75
2022-08-23T03:57:50.519Z,21.76
2022-08-23T04:00:25.062Z,21.77
2022-08-23T04:02:59.196Z,21.75
2022-08-23T04:05:32.683Z,21.74
2022-08-23T04:08:12.392Z,21.73
2022-08-23T04:10:46.609Z,21.72
2022-08-23T04:13:18.811Z,21.70
2022-08-23T04:15:50.972Z,21.70
2022-08-23T04:18:23.997Z,21.67
2022-08-23T04:20:56.198Z,21.69
2022-08-23T04:23:28.271Z,21.69
2022-08-23T04:26:01.780Z,21.68
2022-08-23T04:28:36.711Z,21.66
2022-08-23T04:31:08.923Z,21.65
2022-08-23T04:33:42.108Z,21.62
2022-08-23T04:36:17.089Z,21.60
2022-08-23T04:38:49.240Z,21.58
2022-08-23T04:41:40.127Z,21.56
2022-08-23T04:44:12.388Z,21.52
2022-08-23T04:46:45.039Z,21.51
2022-08-23T04:49:17.425Z,21.50
2022-08-23T04:51:52.929Z,21.48
2022-08-23T04:54:26.982Z,21.47
2022-08-23T04:57:19.222Z,21.48
2022-08-23T04:59:53.714Z,21.47
2022-08-23T05:02:27.737Z,21.49
2022-08-23T05:05:00.966Z,21.51
2022-08-23T05:07:42.482Z,21.48
2022-08-23T05:10:16.931Z,21.46
2022-08-23T05:12:53.459Z,21.45
2022-08-23T05:15:27.027Z,21.43
2022-08-23T05:18:06.193Z,21.43
2022-08-23T05:20:40.201Z,21.40
2022-08-23T05:23:15.779Z,21.37
2022-08-23T05:25:55.273Z,21.32
2022-08-23T05:28:34.846Z,21.31
2022-08-23T05:31:25.262Z,21.35
2022-08-23T05:33:59.769Z,21.39
2022-08-23T05:36:48.327Z,21.38
2022-08-23T05:39:36.923Z,21.39
2022-08-23T05:42:13.948Z,21.43
2022-08-23T05:44:46.627Z,21.44
2022-08-23T05:47:23.643Z,21.46
2022-08-23T05:50:15.398Z,21.49
2022-08-23T05:52:51.073Z,21.49
2022-08-23T05:55:27.581Z,21.49
2022-08-23T05:58:36.335Z,21.52
2022-08-23T06:01:09.122Z,21.54
2022-08-23T06:03:43.191Z,21.58
2022-08-23T06:06:16.425Z,21.60
2022-08-23T06:08:48.775Z,21.62
2022-08-23T06:11:24.562Z,21.64
2022-08-23T06:13:59.829Z,21.65
2022-08-23T06:16:43.627Z,21.70
2022-08-23T06:19:18.272Z,21.73
2022-08-23T06:22:09.310Z,21.79
2022-08-23T06:24:45.497Z,21.83
2022-08-23T06:27:21.596Z,21.90
2022-08-23T06:29:53.594Z,21.98
2022-08-23T06:32:35.694Z,22.03
2022-08-23T06:35:38.677Z,22.04
2022-08-23T06:38:18.284Z,22.04
2022-08-23T06:41:13.415Z,22.05
2022-08-23T06:44:12.673Z,22.05
2022-08-23T06:47:04.963Z,22.03
2022-08-23T06:49:37.267Z,22.06
2022-08-23T06:52:09.331Z,22.10
2022-08-23T06:55:03.002Z,22.17
2022-08-23T06:57:59.312Z,22.21
2022-08-23T07:00:57.473Z,22.24
2022-08-23T07:03:39.241Z,22.30
2022-08-23T07:06:31.740Z,22.35
2022-08-23T07:09:05.273Z,22.40
2022-08-23T07:11:37.498Z,22.48
2022-08-23T07:14:12.676Z,22.55
2022-08-23T07:16:48.626Z,22.61
2022-08-23T07:19:23.223Z,22.66
2022-08-23T07:22:02.818Z,22.70
2022-08-23T07:24:35.167Z,22.74
2022-08-23T07:27:09.686Z,22.78
2022-08-23T07:30:02.687Z,22.81
2022-08-23T07:32:35.704Z,22.84
2022-08-23T07:35:40.178Z,22.86
2022-08-23T07:38:12.845Z,22.89
2022-08-23T07:40:45.198Z,22.98
2022-08-23T07:43:26.506Z,23.19
2022-08-23T07:46:01.246Z,23.35
2022-08-23T07:48:53.571Z,23.38
2022-08-23T07:51:34.885Z,23.37
2022-08-23T07:54:09.461Z,23.41
2022-08-23T07:56:50.140Z,23.41
2022-08-23T07:59:52.611Z,23.41
2022-08-23T08:02:43.624Z,23.45
2022-08-23T08:05:24.198Z,23.50
2022-08-23T08:07:57.713Z,23.52
2022-08-23T08:10:30.229Z,23.56
2022-08-23T08:13:02.933Z,23.59
2022-08-23T08:15:35.599Z,23.67
2022-08-23T08:18:12.670Z,23.74
2022-08-23T08:21:04.278Z,23.84
2022-08-23T08:23:58.713Z,23.94
2022-08-23T08:26:43.295Z,24.02
2022-08-23T08:29:16.170Z,24.09
2022-08-23T08:31:54.135Z,24.12
2022-08-23T08:34:26.633Z,24.19
2022-08-23T08:36:59.124Z,24.26
2022-08-23T08:39:33.788Z,24.32
2022-08-23T08:42:26.470Z,24.39
2022-08-23T08:45:10.361Z,24.44
2022-08-23T08:47:50.376Z,24.50
2022-08-23T08:50:33.926Z,24.55
2022-08-23T08:53:34.871Z,24.58
2022-08-23T08:56:22.541Z,24.61
2022-08-23T08:59:05.022Z,24.65
2022-08-23T09:01:38.437Z,24.72
2022-08-23T09:04:11.702Z,24.79
2022-08-23T09:07:01.065Z,24.85
2022-08-23T09:09:59.653Z,24.91
2022-08-23T09:12:37.795Z,24.94
2022-08-23T09:15:24.057Z,24.95
2022-08-23T09:18:12.312Z,24.98
2022-08-23T09:20:45.831Z,25.01
2022-08-23T09:23:22.177Z,25.03
2022-08-23T09:26:03.622Z,25.04
2022-08-23T09:28:39.215Z,25.07
2022-08-23T09:31:12.037Z,25.10
2022-08-23T09:33:49.249Z,25.14
2022-08-23T09:36:40.975Z,25.17
2022-08-23T09:39:30.523Z,25.21
2022-08-23T09:42:11.773Z,25.22
2022-08-23T09:44:43.922Z,25.24
2022-08-23T09:47:17.850Z,25.26
2022-08-23T09:50:08.299Z,25.30
2022-08-23T09:52:40.404Z,25.32
2022-08-23T09:55:28.695Z,25.33
2022-08-23T09:58:03.185Z,25.35
2022-08-23T10:00:36.754Z,25.36
2022-08-23T10:03:29.304Z,25.40
2022-08-23T10:06:10.558Z,25.42
2022-08-23T10:08:56.211Z,25.47
2022-08-23T10:11:32.648Z,25.51
2022-08-23T10:14:04.843Z,25.56
2022-08-23T10:17:05.241Z,25.60
2022-08-23T10:20:10.692Z,25.65
2022-08-23T10:22:52.806Z,25.70
2022-08-23T10:25:36.924Z,25.73
2022-08-23T10:28:35.725Z,25.75
2022-08-23T10:31:17.445Z,25.76
2022-08-23T10:34:12.035Z,25.77
2022-08-23T10:37:00.148Z,25.82
2022-08-23T10:39:32.564Z,25.88
2022-08-23T10:42:32.721Z,25.92
2022-08-23T10:45:32.345Z,25.95
2022-08-23T10:48:28.448Z,25.97
2022-08-23T10:51:23.043Z,26.01
2022-08-23T10:54:08.065Z,26.05
2022-08-23T10:56:48.570Z,26.08
2022-08-23T10:59:24.830Z,26.10
2022-08-23T11:02:20.086Z,26.14
2022-08-23T11:05:17.509Z,26.19
2022-08-23T11:08:04.027Z,26.25
2022-08-23T11:10:40.147Z,26.30
2022-08-23T11:13:12.746Z,26.39
2022-08-23T11:15:48.884Z,26.45
2022-08-23T11:18:43.888Z,26.53
2022-08-23T11:21:18.015Z,26.65
2022-08-23T11:24:00.123Z,26.78
2022-08-23T11:26:37.793Z,26.94
2022-08-23T11:29:22.319Z,27.19
2022-08-23T11:32:15.119Z,27.58
2022-08-23T11:34:52.101Z,28.11
2022-08-23T11:37:29.814Z,28.79
2022-08-23T11:40:13.596Z,29.56
2022-08-23T11:42:50.740Z,30.41
2022-08-23T11:45:43.044Z,31.22
2022-08-23T11:48:19.444Z,31.96
2022-08-23T11:50:57.614Z,32.67
2022-08-23T11:53:39.011Z,33.35
2022-08-23T11:56:26.643Z,33.91
2022-08-23T11:59:30.008Z,34.53
2022-08-23T12:02:40.640Z,35.38
2022-08-23T12:05:17.973Z,36.08
2022-08-23T12:08:17.757Z,36.59
2022-08-23T12:10:51.089Z,37.11
2022-08-23T12:13:23.426Z,37.55
2022-08-23T12:16:16.893Z,37.98
2022-08-23T12:18:49.360Z,38.37
2022-08-23T12:21:26.495Z,38.74
2022-08-23T12:24:02.843Z,39.10
2022-08-23T12:26:45.753Z,39.39
2022-08-23T12:29:19.901Z,39.81
2022-08-23T12:31:54.323Z,39.85
2022-08-23T12:34:32.018Z,39.89
2022-08-23T12:37:21.729Z,39.91
2022-08-23T12:39:56.854Z,40.07
2022-08-23T12:42:31.819Z,40.20
2022-08-23T12:45:06.728Z,40.23
2022-08-23T12:47:43.116Z,40.42
2022-08-23T12:50:15.578Z,40.45
2022-08-23T12:52:57.354Z,40.47
2022-08-23T12:55:41.913Z,40.52
2022-08-23T12:58:15.789Z,40.55
2022-08-23T13:00:52.921Z,40.56
2022-08-23T13:03:38.924Z,40.68
2022-08-23T13:06:15.054Z,40.73
2022-08-23T13:08:52.790Z,40.77
2022-08-23T13:11:28.681Z,40.77
2022-08-23T13:14:03.377Z,40.80
2022-08-23T13:16:43.824Z,40.94
2022-08-23T13:19:23.736Z,41.07
2022-08-23T13:22:22.354Z,41.07
2022-08-23T13:28:08.856Z,41.35
2022-08-23T13:30:59.282Z,41.45
2022-08-23T13:33:33.020Z,41.39
2022-08-23T13:36:23.581Z,41.22
2022-08-23T13:38:56.571Z,41.06
2022-08-23T13:41:38.975Z,41.13
2022-08-23T13:44:16.928Z,41.13
2022-08-23T13:46:52.434Z,41.01
2022-08-23T13:49:28.753Z,40.98
2022-08-23T13:52:18.713Z,41.09
2022-08-23T13:54:53.757Z,41.04
2022-08-23T13:57:30.073Z,41.05
2022-08-23T14:00:03.964Z,41.14
2022-08-23T14:02:42.102Z,40.94
2022-08-23T14:05:17.611Z,40.84
2022-08-23T14:07:53.029Z,40.82
2022-08-23T14:10:26.979Z,40.91
2022-08-23T14:13:02.707Z,40.93
2022-08-23T14:18:29.148Z,40.77
2022-08-23T14:21:02.573Z,40.67
2022-08-23T14:23:35.744Z,40.64
2022-08-23T14:26:08.997Z,40.59
2022-08-23T14:28:44.511Z,40.11
2022-08-23T14:31:17.917Z,39.21
2022-08-23T14:33:51.085Z,38.23
2022-08-23T14:36:23.711Z,37.34
2022-08-23T14:39:02.528Z,36.46
2022-08-23T14:41:35.099Z,35.56
2022-08-23T14:44:08.051Z,34.86
2022-08-23T14:46:41.012Z,34.25
2022-08-23T14:49:14.600Z,33.70
2022-08-23T14:51:49.989Z,33.30
2022-08-23T14:54:25.844Z,33.03
2022-08-23T14:56:58.670Z,32.82
2022-08-23T14:59:31.157Z,32.54
2022-08-23T15:02:05.101Z,32.32
2022-08-23T15:04:38.005Z,32.09
2022-08-23T15:07:18.259Z,31.87
2022-08-23T15:09:54.905Z,31.76
2022-08-23T15:15:22.324Z,31.55
2022-08-23T15:17:58.227Z,31.46
2022-08-23T15:20:35.286Z,31.38
2022-08-23T15:23:09.081Z,31.24
2022-08-23T15:25:43.934Z,31.12
2022-08-23T15:28:19.363Z,30.96
2022-08-23T15:30:52.474Z,30.87
2022-08-23T15:33:27.036Z,30.81
2022-08-23T15:36:04.158Z,30.75
2022-08-23T15:38:37.980Z,30.61
2022-08-23T15:41:12.708Z,30.54
2022-08-23T15:43:46.576Z,30.46
2022-08-23T15:46:21.926Z,30.39
2022-08-23T15:49:05.017Z,30.31
2022-08-23T15:51:38.403Z,30.24
2022-08-23T15:54:11.544Z,30.18
2022-08-23T15:56:50.152Z,30.17
2022-08-23T15:59:27.259Z,30.16
2022-08-23T16:01:59.909Z,30.11
2022-08-23T16:04:35.721Z,30.08
2022-08-23T16:07:11.945Z,30.09
2022-08-23T16:09:44.651Z,30.09
2022-08-23T16:12:17.927Z,30.07
2022-08-23T16:14:51.287Z,30.02
2022-08-23T16:17:25.749Z,29.96
2022-08-23T16:19:58.663Z,29.89
2022-08-23T16:22:31.957Z,29.84
2022-08-23T16:25:06.386Z,29.77
2022-08-23T16:27:38.896Z,29.73
2022-08-23T16:30:13.103Z,29.74
2022-08-23T16:32:46.120Z,29.71
2022-08-23T16:35:20.106Z,29.70
2022-08-23T16:37:54.743Z,29.69
2022-08-23T16:40:27.708Z,29.69
2022-08-23T16:43:01.308Z,29.60
2022-08-23T16:45:33.957Z,29.53
2022-08-23T16:48:08.908Z,29.47
2022-08-23T16:50:43.997Z,29.39
2022-08-23T16:53:17.077Z,29.32
2022-08-23T16:55:49.689Z,29.26
2022-08-23T16:58:24.855Z,29.24
2022-08-23T17:00:59.432Z,29.20
2022-08-23T17:03:32.608Z,29.15
2022-08-23T17:06:06.231Z,29.11
2022-08-23T17:08:38.879Z,29.08
2022-08-23T17:11:15.077Z,29.06
2022-08-23T17:13:48.052Z,29.04
2022-08-23T17:16:22.981Z,29.01
2022-08-23T17:18:57.738Z,29.00
2022-08-23T17:21:30.598Z,28.98
2022-08-23T17:24:04.409Z,28.93
2022-08-23T17:26:38.009Z,28.91
2022-08-23T17:29:12.816Z,28.89
2022-08-23T17:31:45.710Z,28.88
2022-08-23T17:34:18.462Z,28.86
2022-08-23T17:36:54.146Z,28.83
2022-08-23T17:39:29.348Z,28.79
2022-08-23T17:42:02.011Z,28.74
2022-08-23T17:44:36.916Z,28.69
2022-08-23T17:47:12.836Z,28.62
2022-08-23T17:49:47.197Z,28.57
2022-08-23T17:52:20.235Z,28.52
2022-08-23T17:54:54.244Z,28.47
2022-08-23T17:57:27.864Z,28.43
2022-08-23T18:00:04.502Z,28.39
2022-08-23T18:02:38.328Z,28.35
2022-08-23T18:05:12.168Z,28.33
2022-08-23T18:07:46.244Z,28.28
2022-08-23T18:10:19.550Z,28.23
2022-08-23T18:12:52.368Z,28.19
2022-08-23T18:15:25.661Z,28.15
2022-08-23T18:17:59.586Z,28.09
2022-08-23T18:20:33.169Z,28.04
2022-08-23T18:23:05.920Z,28.02
2022-08-23T18:25:38.676Z,27.99
2022-08-23T18:28:13.259Z,27.94
2022-08-23T18:30:49.116Z,27.93
2022-08-23T18:33:25.163Z,27.89
2022-08-23T18:35:58.366Z,27.87
2022-08-23T18:38:31.117Z,27.83
2022-08-23T18:41:03.700Z,27.82
2022-08-23T18:43:37.708Z,27.79
2022-08-23T18:46:10.690Z,27.73
2022-08-23T18:48:43.367Z,27.71
2022-08-23T18:51:27.345Z,27.68
2022-08-23T18:54:00.339Z,27.63
2022-08-23T18:56:34.116Z,27.58
2022-08-23T18:59:06.958Z,27.56
2022-08-23T19:01:41.423Z,27.53
2022-08-23T19:04:13.989Z,27.52
2022-08-23T19:06:46.922Z,27.51
2022-08-23T19:09:18.899Z,27.49
2022-08-23T19:11:50.887Z,27.45
2022-08-23T19:14:22.786Z,27.39
2022-08-23T19:16:55.282Z,27.33
2022-08-23T19:19:27.704Z,27.27
2022-08-23T19:21:59.778Z,27.23
2022-08-23T19:24:31.828Z,27.18
2022-08-23T19:27:04.194Z,27.14
2022-08-23T19:29:36.151Z,27.11
2022-08-23T19:32:08.153Z,27.05
2022-08-23T19:34:42.157Z,26.99
2022-08-23T19:37:20.471Z,26.93
2022-08-23T19:39:55.084Z,26.87
2022-08-23T19:42:27.064Z,26.81
2022-08-23T19:44:59.006Z,26.78
2022-08-23T19:47:31.066Z,26.72
2022-08-23T19:50:05.022Z,26.66
2022-08-23T19:52:36.933Z,26.61
2022-08-23T19:55:10.521Z,26.56
2022-08-23T19:57:42.514Z,26.50
2022-08-23T20:00:19.369Z,26.46
2022-08-23T20:02:51.936Z,26.41
2022-08-23T20:05:23.939Z,26.36
2022-08-23T20:07:55.932Z,26.32
2022-08-23T20:10:28.338Z,26.27
2022-08-23T20:13:01.161Z,26.24
2022-08-23T20:15:33.241Z,26.19
2022-08-23T20:18:05.344Z,26.13
2022-08-23T20:20:37.152Z,26.09
2022-08-23T20:23:27.705Z,26.04
2022-08-23T20:25:59.612Z,25.98
2022-08-23T20:28:32.030Z,25.94
2022-08-23T20:31:24.522Z,25.92
2022-08-23T20:33:57.114Z,25.87
2022-08-23T20:36:29.177Z,25.84
2022-08-23T20:39:01.827Z,25.80
2022-08-23T20:41:37.243Z,25.77
2022-08-23T20:44:09.562Z,25.72
2022-08-23T20:46:41.625Z,25.67
2022-08-23T20:49:13.947Z,25.65
2022-08-23T20:51:45.979Z,25.62
2022-08-23T20:54:18.425Z,25.59
2022-08-23T20:56:51.583Z,25.57
2022-08-23T20:59:23.689Z,25.53
2022-08-23T21:01:55.669Z,25.49
2022-08-23T21:04:30.306Z,25.46
2022-08-23T21:07:02.472Z,25.44
2022-08-23T21:09:34.400Z,25.41
2022-08-23T21:12:06.570Z,25.39
2022-08-23T21:14:38.452Z,25.36
2022-08-23T21:17:10.320Z,25.34
2022-08-23T21:19:44.136Z,25.30
2022-08-23T21:22:16.089Z,25.28
2022-08-23T21:24:48.149Z,25.26
2022-08-23T21:27:20.636Z,25.23
2022-08-23T21:29:52.550Z,25.19
2022-08-23T21:32:24.817Z,25.16
2022-08-23T21:34:57.981Z,25.14
2022-08-23T21:37:30.007Z,25.09
2022-08-23T21:40:02.157Z,25.06
2022-08-23T21:42:34.247Z,25.04
2022-08-23T21:45:07.622Z,24.99
2022-08-23T21:47:39.704Z,24.96
2022-08-23T21:50:11.978Z,24.93
2022-08-23T21:52:44.003Z,24.92
2022-08-23T21:55:30.160Z,24.91
2022-08-23T21:58:09.101Z,24.90
2022-08-23T22:00:41.582Z,24.88
2022-08-23T22:03:13.563Z,24.85
2022-08-23T22:05:46.294Z,24.83
2022-08-23T22:08:18.116Z,24.85
2022-08-23T22:10:56.773Z,24.84
2022-08-23T22:13:30.249Z,24.84
2022-08-23T22:16:02.283Z,24.82
2022-08-23T22:18:35.199Z,24.79
2022-08-23T22:21:07.134Z,24.80
2022-08-23T22:23:43.488Z,24.78
2022-08-23T22:26:15.417Z,24.73
2022-08-23T22:28:47.482Z,24.73
2022-08-23T22:31:19.908Z,24.69
2022-08-23T22:33:52.896Z,24.69
2022-08-23T22:36:24.874Z,24.65
2022-08-23T22:38:57.228Z,24.61
2022-08-23T22:41:30.081Z,24.59
2022-08-23T22:44:03.259Z,24.57
2022-08-23T22:46:35.575Z,24.52
2022-08-23T22:49:07.932Z,24.51
2022-08-23T22:51:39.824Z,24.46
2022-08-23T22:54:12.540Z,24.44
2022-08-23T22:56:47.206Z,24.43
2022-08-23T22:59:21.438Z,24.44
2022-08-23T23:01:55.481Z,24.44
2022-08-23T23:04:28.552Z,24.46
2022-08-23T23:07:01.094Z,24.46
2022-08-23T23:09:32.920Z,24.44
2022-08-23T23:12:05.206Z,24.41
2022-08-23T23:14:37.174Z,24.38
2022-08-23T23:17:09.102Z,24.36
2022-08-23T23:19:59.988Z,24.30
2022-08-23T23:22:31.822Z,24.26
2022-08-23T23:25:04.237Z,24.21
2022-08-23T23:27:36.213Z,24.18
2022-08-23T23:30:09.759Z,24.14
2022-08-23T23:32:41.594Z,24.13
2022-08-23T23:35:15.566Z,24.12
2022-08-23T23:37:49.697Z,24.10
2022-08-23T23:40:22.390Z,24.07
2022-08-23T23:42:55.344Z,24.07
2022-08-23T23:45:27.848Z,24.04
2022-08-23T23:47:59.765Z,24.03
2022-08-23T23:50:31.720Z,24.01
2022-08-23T23:53:03.648Z,23.95
2022-08-23T23:55:35.553Z,23.89
2022-08-23T23:58:07.461Z,23.84
